sensor_id;sensor_type;location;lat;lon;timestamp;temperature;humidity
66088;DHT22;52872;52.994;6.940;2022-12-29T00:00:09;11.60;99.90
66088;DHT22;52872;52.994;6.940;2022-12-29T00:02:40;11.60;99.90
66088;DHT22;52872;52.994;6.940;2022-12-29T00:05:07;11.60;99.90
66088;DHT22;52872;52.994;6.940;2022-12-29T00:07:37;11.50;99.90
66088;DHT22;52872;52.994;6.940;2022-12-29T00:10:05;11.50;99.90
66088;DHT22;52872;52.994;6.940;2022-12-29T00:12:32;11.50;99.90
66088;DHT22;52872;52.994;6.940;2022-12-29T00:15:19;11.50;99.90
66088;DHT22;52872;52.994;6.940;2022-12-29T00:18:05;11.50;99.90
66088;DHT22;52872;52.994;6.940;2022-12-29T00:20:36;11.50;99.90
66088;DHT22;52872;52.994;6.940;2022-12-29T00:23:22;11.60;99.90
66088;DHT22;52872;52.994;6.940;2022-12-29T00:26:16;11.60;99.90
66088;DHT22;52872;52.994;6.940;2022-12-29T00:29:01;11.60;99.90
66088;DHT22;52872;52.994;6.940;2022-12-29T00:31:47;11.60;99.90
66088;DHT22;52872;52.994;6.940;2022-12-29T00:34:33;11.50;99.90
66088;DHT22;52872;52.994;6.940;2022-12-29T00:37:18;11.50;99.90
66088;DHT22;52872;52.994;6.940;2022-12-29T00:40:06;11.50;99.90
66088;DHT22;52872;52.994;6.940;2022-12-29T00:42:52;11.50;99.90
66088;DHT22;52872;52.994;6.940;2022-12-29T00:45:40;11.60;99.90
66088;DHT22;52872;52.994;6.940;2022-12-29T00:48:07;11.60;99.90
66088;DHT22;52872;52.994;6.940;2022-12-29T00:50:34;11.60;99.90
66088;DHT22;52872;52.994;6.940;2022-12-29T00:53:01;11.60;99.90
66088;DHT22;52872;52.994;6.940;2022-12-29T00:55:28;11.60;99.90
66088;DHT22;52872;52.994;6.940;2022-12-29T00:57:55;11.70;99.90
66088;DHT22;52872;52.994;6.940;2022-12-29T01:00:22;11.70;99.90
66088;DHT22;52872;52.994;6.940;2022-12-29T01:02:49;11.70;99.90
66088;DHT22;52872;52.994;6.940;2022-12-29T01:05:16;11.70;99.90
66088;DHT22;52872;52.994;6.940;2022-12-29T01:07:43;11.70;99.90
66088;DHT22;52872;52.994;6.940;2022-12-29T01:10:10;11.70;99.90
66088;DHT22;52872;52.994;6.940;2022-12-29T01:12:37;11.70;99.90
66088;DHT22;52872;52.994;6.940;2022-12-29T01:15:12;11.80;99.90
66088;DHT22;52872;52.994;6.940;2022-12-29T01:17:40;11.70;99.90
66088;DHT22;52872;52.994;6.940;2022-12-29T01:20:08;11.70;99.90
66088;DHT22;52872;52.994;6.940;2022-12-29T01:22:35;11.70;99.90
66088;DHT22;52872;52.994;6.940;2022-12-29T01:25:03;11.70;99.90
66088;DHT22;52872;52.994;6.940;2022-12-29T01:27:30;11.80;99.90
66088;DHT22;52872;52.994;6.940;2022-12-29T01:29:57;11.80;99.90
66088;DHT22;52872;52.994;6.940;2022-12-29T01:32:24;11.80;99.90
66088;DHT22;52872;52.994;6.940;2022-12-29T01:34:51;11.80;99.90
66088;DHT22;52872;52.994;6.940;2022-12-29T01:37:18;11.70;99.90
66088;DHT22;52872;52.994;6.940;2022-12-29T01:39:45;11.70;99.90
66088;DHT22;52872;52.994;6.940;2022-12-29T01:42:17;11.70;99.90
66088;DHT22;52872;52.994;6.940;2022-12-29T01:44:57;11.80;99.90
66088;DHT22;52872;52.994;6.940;2022-12-29T01:52:56;11.90;99.90
66088;DHT22;52872;52.994;6.940;2022-12-29T01:55:26;11.90;99.90
66088;DHT22;52872;52.994;6.940;2022-12-29T01:57:55;11.90;99.90
66088;DHT22;52872;52.994;6.940;2022-12-29T02:00:23;11.90;99.90
66088;DHT22;52872;52.994;6.940;2022-12-29T02:02:54;11.90;99.90
66088;DHT22;52872;52.994;6.940;2022-12-29T02:05:49;12.00;99.90
66088;DHT22;52872;52.994;6.940;2022-12-29T02:08:20;12.10;99.90
66088;DHT22;52872;52.994;6.940;2022-12-29T02:10:49;12.00;99.90
66088;DHT22;52872;52.994;6.940;2022-12-29T02:13:17;12.00;99.90
66088;DHT22;52872;52.994;6.940;2022-12-29T02:24:35;12.00;99.90
66088;DHT22;52872;52.994;6.940;2022-12-29T02:30:02;12.10;99.90
66088;DHT22;52872;52.994;6.940;2022-12-29T02:35:29;12.20;99.90
66088;DHT22;52872;52.994;6.940;2022-12-29T02:40:48;12.20;99.90
66088;DHT22;52872;52.994;6.940;2022-12-29T02:49:01;12.20;99.90
66088;DHT22;52872;52.994;6.940;2022-12-29T02:51:25;12.20;99.90
66088;DHT22;52872;52.994;6.940;2022-12-29T02:53:54;12.20;99.90
66088;DHT22;52872;52.994;6.940;2022-12-29T02:56:41;12.20;99.90
66088;DHT22;52872;52.994;6.940;2022-12-29T02:59:08;12.10;99.90
66088;DHT22;52872;52.994;6.940;2022-12-29T03:04:48;12.10;99.90
66088;DHT22;52872;52.994;6.940;2022-12-29T03:07:43;12.10;99.90
66088;DHT22;52872;52.994;6.940;2022-12-29T03:10:25;12.10;99.90
66088;DHT22;52872;52.994;6.940;2022-12-29T03:13:00;12.10;99.90
66088;DHT22;52872;52.994;6.940;2022-12-29T03:24:20;12.10;99.90
66088;DHT22;52872;52.994;6.940;2022-12-29T03:26:52;12.00;99.90
66088;DHT22;52872;52.994;6.940;2022-12-29T03:29:20;12.00;99.90
66088;DHT22;52872;52.994;6.940;2022-12-29T03:31:49;11.90;99.90
66088;DHT22;52872;52.994;6.940;2022-12-29T03:34:20;11.90;99.90
66088;DHT22;52872;52.994;6.940;2022-12-29T03:36:53;11.90;99.90
66088;DHT22;52872;52.994;6.940;2022-12-29T03:39:23;11.90;99.90
66088;DHT22;52872;52.994;6.940;2022-12-29T03:41:56;11.90;99.90
66088;DHT22;52872;52.994;6.940;2022-12-29T03:44:33;11.90;99.90
66088;DHT22;52872;52.994;6.940;2022-12-29T03:47:03;12.00;99.90
66088;DHT22;52872;52.994;6.940;2022-12-29T03:49:31;11.90;99.90
66088;DHT22;52872;52.994;6.940;2022-12-29T03:51:58;11.90;99.90
66088;DHT22;52872;52.994;6.940;2022-12-29T03:54:26;12.00;99.90
66088;DHT22;52872;52.994;6.940;2022-12-29T03:56:53;11.90;99.90
66088;DHT22;52872;52.994;6.940;2022-12-29T03:59:31;11.90;99.90
66088;DHT22;52872;52.994;6.940;2022-12-29T04:01:58;11.80;99.90
66088;DHT22;52872;52.994;6.940;2022-12-29T04:04:25;11.80;99.90
66088;DHT22;52872;52.994;6.940;2022-12-29T04:06:52;11.80;99.90
66088;DHT22;52872;52.994;6.940;2022-12-29T04:09:19;11.80;99.90
66088;DHT22;52872;52.994;6.940;2022-12-29T04:11:48;11.80;99.90
66088;DHT22;52872;52.994;6.940;2022-12-29T04:14:15;11.80;99.90
66088;DHT22;52872;52.994;6.940;2022-12-29T04:16:43;11.80;99.90
66088;DHT22;52872;52.994;6.940;2022-12-29T04:19:12;11.90;99.90
66088;DHT22;52872;52.994;6.940;2022-12-29T04:21:40;11.90;99.90
66088;DHT22;52872;52.994;6.940;2022-12-29T04:24:08;11.80;99.90
66088;DHT22;52872;52.994;6.940;2022-12-29T04:26:39;11.80;99.90
66088;DHT22;52872;52.994;6.940;2022-12-29T04:29:20;11.80;99.90
66088;DHT22;52872;52.994;6.940;2022-12-29T04:32:07;11.80;99.90
66088;DHT22;52872;52.994;6.940;2022-12-29T04:34:38;11.70;99.90
66088;DHT22;52872;52.994;6.940;2022-12-29T04:37:05;11.70;99.90
66088;DHT22;52872;52.994;6.940;2022-12-29T04:39:32;11.70;99.90
66088;DHT22;52872;52.994;6.940;2022-12-29T04:42:02;11.70;99.90
66088;DHT22;52872;52.994;6.940;2022-12-29T04:44:29;11.70;99.90
66088;DHT22;52872;52.994;6.940;2022-12-29T04:47:10;11.60;99.90
66088;DHT22;52872;52.994;6.940;2022-12-29T04:50:10;11.50;99.90
66088;DHT22;52872;52.994;6.940;2022-12-29T04:52:43;11.40;99.90
66088;DHT22;52872;52.994;6.940;2022-12-29T04:55:12;11.30;99.90
66088;DHT22;52872;52.994;6.940;2022-12-29T04:57:40;11.20;99.90
66088;DHT22;52872;52.994;6.940;2022-12-29T05:00:09;11.20;99.90
66088;DHT22;52872;52.994;6.940;2022-12-29T05:02:37;11.10;99.90
66088;DHT22;52872;52.994;6.940;2022-12-29T05:05:05;11.10;99.90
66088;DHT22;52872;52.994;6.940;2022-12-29T05:07:34;11.00;99.90
66088;DHT22;52872;52.994;6.940;2022-12-29T05:10:02;11.00;99.90
66088;DHT22;52872;52.994;6.940;2022-12-29T05:12:34;11.00;99.90
66088;DHT22;52872;52.994;6.940;2022-12-29T05:15:01;11.00;99.90
66088;DHT22;52872;52.994;6.940;2022-12-29T05:17:30;10.90;99.90
66088;DHT22;52872;52.994;6.940;2022-12-29T05:19:57;10.90;99.90
66088;DHT22;52872;52.994;6.940;2022-12-29T05:22:24;10.90;99.90
66088;DHT22;52872;52.994;6.940;2022-12-29T05:24:52;10.90;99.90
66088;DHT22;52872;52.994;6.940;2022-12-29T05:27:19;10.90;99.90
66088;DHT22;52872;52.994;6.940;2022-12-29T05:29:59;10.80;99.90
66088;DHT22;52872;52.994;6.940;2022-12-29T05:32:26;10.80;99.90
66088;DHT22;52872;52.994;6.940;2022-12-29T05:34:53;10.80;99.90
66088;DHT22;52872;52.994;6.940;2022-12-29T05:37:21;10.80;99.90
66088;DHT22;52872;52.994;6.940;2022-12-29T05:39:48;10.80;99.90
66088;DHT22;52872;52.994;6.940;2022-12-29T05:42:15;10.80;99.90
66088;DHT22;52872;52.994;6.940;2022-12-29T05:44:57;10.80;99.90
66088;DHT22;52872;52.994;6.940;2022-12-29T05:47:43;10.80;99.90
66088;DHT22;52872;52.994;6.940;2022-12-29T05:50:25;10.70;99.90
66088;DHT22;52872;52.994;6.940;2022-12-29T05:53:07;10.70;99.90
66088;DHT22;52872;52.994;6.940;2022-12-29T05:55:36;10.60;99.90
66088;DHT22;52872;52.994;6.940;2022-12-29T05:58:04;10.60;99.90
66088;DHT22;52872;52.994;6.940;2022-12-29T06:00:31;10.60;99.90
66088;DHT22;52872;52.994;6.940;2022-12-29T06:02:58;10.60;99.90
66088;DHT22;52872;52.994;6.940;2022-12-29T06:05:26;10.50;99.90
66088;DHT22;52872;52.994;6.940;2022-12-29T06:07:53;10.50;99.90
66088;DHT22;52872;52.994;6.940;2022-12-29T06:10:20;10.50;99.90
66088;DHT22;52872;52.994;6.940;2022-12-29T06:12:53;10.50;99.90
66088;DHT22;52872;52.994;6.940;2022-12-29T06:15:20;10.50;99.90
66088;DHT22;52872;52.994;6.940;2022-12-29T06:17:49;10.50;99.90
66088;DHT22;52872;52.994;6.940;2022-12-29T06:20:17;10.50;99.90
66088;DHT22;52872;52.994;6.940;2022-12-29T06:22:44;10.40;99.90
66088;DHT22;52872;52.994;6.940;2022-12-29T06:25:13;10.50;99.90
66088;DHT22;52872;52.994;6.940;2022-12-29T06:27:42;10.50;99.90
66088;DHT22;52872;52.994;6.940;2022-12-29T06:30:10;10.50;99.90
66088;DHT22;52872;52.994;6.940;2022-12-29T06:32:38;10.50;99.90
66088;DHT22;52872;52.994;6.940;2022-12-29T06:35:08;10.50;99.90
66088;DHT22;52872;52.994;6.940;2022-12-29T06:37:40;10.60;99.90
66088;DHT22;52872;52.994;6.940;2022-12-29T06:40:07;10.60;99.90
66088;DHT22;52872;52.994;6.940;2022-12-29T06:42:55;10.70;99.90
66088;DHT22;52872;52.994;6.940;2022-12-29T06:45:40;10.70;99.90
66088;DHT22;52872;52.994;6.940;2022-12-29T06:48:08;10.70;99.90
66088;DHT22;52872;52.994;6.940;2022-12-29T06:50:35;10.80;99.90
66088;DHT22;52872;52.994;6.940;2022-12-29T06:53:02;10.80;99.90
66088;DHT22;52872;52.994;6.940;2022-12-29T06:55:29;10.80;99.90
66088;DHT22;52872;52.994;6.940;2022-12-29T06:57:57;10.80;99.90
66088;DHT22;52872;52.994;6.940;2022-12-29T07:00:25;10.80;99.90
66088;DHT22;52872;52.994;6.940;2022-12-29T07:02:54;10.90;99.90
66088;DHT22;52872;52.994;6.940;2022-12-29T07:05:21;11.00;99.90
66088;DHT22;52872;52.994;6.940;2022-12-29T07:07:48;11.00;99.90
66088;DHT22;52872;52.994;6.940;2022-12-29T07:10:16;11.00;99.90
66088;DHT22;52872;52.994;6.940;2022-12-29T07:12:42;11.00;99.90
66088;DHT22;52872;52.994;6.940;2022-12-29T07:15:10;11.10;99.90
66088;DHT22;52872;52.994;6.940;2022-12-29T07:17:37;11.10;99.90
66088;DHT22;52872;52.994;6.940;2022-12-29T07:20:05;11.10;99.90
66088;DHT22;52872;52.994;6.940;2022-12-29T07:22:34;11.10;99.90
66088;DHT22;52872;52.994;6.940;2022-12-29T07:25:01;11.00;99.90
66088;DHT22;52872;52.994;6.940;2022-12-29T07:27:29;11.00;99.90
66088;DHT22;52872;52.994;6.940;2022-12-29T07:29:56;11.00;99.90
66088;DHT22;52872;52.994;6.940;2022-12-29T07:32:23;11.10;99.90
66088;DHT22;52872;52.994;6.940;2022-12-29T07:34:50;11.10;99.90
66088;DHT22;52872;52.994;6.940;2022-12-29T07:37:17;11.10;99.90
66088;DHT22;52872;52.994;6.940;2022-12-29T07:39:44;11.00;99.90
66088;DHT22;52872;52.994;6.940;2022-12-29T07:42:11;11.00;99.90
66088;DHT22;52872;52.994;6.940;2022-12-29T07:44:43;10.90;99.90
66088;DHT22;52872;52.994;6.940;2022-12-29T07:47:36;11.00;99.90
66088;DHT22;52872;52.994;6.940;2022-12-29T07:50:04;10.90;99.90
66088;DHT22;52872;52.994;6.940;2022-12-29T07:52:31;10.90;99.90
66088;DHT22;52872;52.994;6.940;2022-12-29T07:54:58;11.00;99.90
66088;DHT22;52872;52.994;6.940;2022-12-29T07:57:25;11.00;99.90
66088;DHT22;52872;52.994;6.940;2022-12-29T07:59:57;11.10;99.90
66088;DHT22;52872;52.994;6.940;2022-12-29T08:02:24;11.10;99.90
66088;DHT22;52872;52.994;6.940;2022-12-29T08:04:53;11.10;99.90
66088;DHT22;52872;52.994;6.940;2022-12-29T08:07:20;11.10;99.90
66088;DHT22;52872;52.994;6.940;2022-12-29T08:09:47;11.10;99.90
66088;DHT22;52872;52.994;6.940;2022-12-29T08:12:14;11.10;99.90
66088;DHT22;52872;52.994;6.940;2022-12-29T08:14:41;11.10;99.90
66088;DHT22;52872;52.994;6.940;2022-12-29T08:17:08;11.10;99.90
66088;DHT22;52872;52.994;6.940;2022-12-29T08:19:35;11.10;99.90
66088;DHT22;52872;52.994;6.940;2022-12-29T08:22:02;11.10;99.90
66088;DHT22;52872;52.994;6.940;2022-12-29T08:24:30;11.10;99.90
66088;DHT22;52872;52.994;6.940;2022-12-29T08:26:56;11.10;99.90
66088;DHT22;52872;52.994;6.940;2022-12-29T08:29:23;11.20;99.90
66088;DHT22;52872;52.994;6.940;2022-12-29T08:31:50;11.10;99.90
66088;DHT22;52872;52.994;6.940;2022-12-29T08:34:18;11.20;99.90
66088;DHT22;52872;52.994;6.940;2022-12-29T08:36:44;11.10;99.90
66088;DHT22;52872;52.994;6.940;2022-12-29T08:39:11;11.00;99.90
66088;DHT22;52872;52.994;6.940;2022-12-29T08:41:38;11.00;99.90
66088;DHT22;52872;52.994;6.940;2022-12-29T08:44:06;11.10;99.90
66088;DHT22;52872;52.994;6.940;2022-12-29T08:46:33;11.10;99.90
66088;DHT22;52872;52.994;6.940;2022-12-29T08:49:00;11.20;99.90
66088;DHT22;52872;52.994;6.940;2022-12-29T08:51:27;11.20;99.90
66088;DHT22;52872;52.994;6.940;2022-12-29T08:53:54;11.30;99.90
66088;DHT22;52872;52.994;6.940;2022-12-29T08:56:21;11.40;99.90
66088;DHT22;52872;52.994;6.940;2022-12-29T08:58:53;11.40;99.90
66088;DHT22;52872;52.994;6.940;2022-12-29T09:01:21;11.40;99.90
66088;DHT22;52872;52.994;6.940;2022-12-29T09:03:48;11.40;99.90
66088;DHT22;52872;52.994;6.940;2022-12-29T09:06:35;11.50;99.90
66088;DHT22;52872;52.994;6.940;2022-12-29T09:09:06;11.50;99.90
66088;DHT22;52872;52.994;6.940;2022-12-29T09:11:33;11.60;99.90
66088;DHT22;52872;52.994;6.940;2022-12-29T09:14:00;11.60;99.90
66088;DHT22;52872;52.994;6.940;2022-12-29T09:16:27;11.70;99.90
66088;DHT22;52872;52.994;6.940;2022-12-29T09:18:54;11.80;99.90
66088;DHT22;52872;52.994;6.940;2022-12-29T09:21:21;11.80;99.90
66088;DHT22;52872;52.994;6.940;2022-12-29T09:23:48;11.80;99.90
66088;DHT22;52872;52.994;6.940;2022-12-29T09:26:15;11.90;99.90
66088;DHT22;52872;52.994;6.940;2022-12-29T09:28:43;11.90;99.90
66088;DHT22;52872;52.994;6.940;2022-12-29T09:31:11;11.90;99.90
66088;DHT22;52872;52.994;6.940;2022-12-29T09:33:38;11.90;99.90
66088;DHT22;52872;52.994;6.940;2022-12-29T09:36:05;11.80;99.90
66088;DHT22;52872;52.994;6.940;2022-12-29T09:38:32;11.80;99.90
66088;DHT22;52872;52.994;6.940;2022-12-29T09:41:16;11.80;99.90
66088;DHT22;52872;52.994;6.940;2022-12-29T09:46:29;11.80;99.90
66088;DHT22;52872;52.994;6.940;2022-12-29T09:57:49;11.90;99.90
66088;DHT22;52872;52.994;6.940;2022-12-29T10:00:21;11.90;99.90
66088;DHT22;52872;52.994;6.940;2022-12-29T10:03:16;11.80;99.90
66088;DHT22;52872;52.994;6.940;2022-12-29T10:22:42;11.60;99.90
66088;DHT22;52872;52.994;6.940;2022-12-29T10:25:17;11.70;99.90
66088;DHT22;52872;52.994;6.940;2022-12-29T10:27:49;11.60;99.90
66088;DHT22;52872;52.994;6.940;2022-12-29T10:30:17;11.50;99.90
66088;DHT22;52872;52.994;6.940;2022-12-29T10:32:49;11.50;99.90
66088;DHT22;52872;52.994;6.940;2022-12-29T10:38:03;11.50;99.90
66088;DHT22;52872;52.994;6.940;2022-12-29T10:46:05;11.50;99.90
66088;DHT22;52872;52.994;6.940;2022-12-29T10:48:35;11.40;99.90
66088;DHT22;52872;52.994;6.940;2022-12-29T10:51:05;11.30;99.90
66088;DHT22;52872;52.994;6.940;2022-12-29T10:53:40;11.30;99.90
66088;DHT22;52872;52.994;6.940;2022-12-29T10:58:55;11.40;99.90
66088;DHT22;52872;52.994;6.940;2022-12-29T11:01:29;11.30;99.90
66088;DHT22;52872;52.994;6.940;2022-12-29T11:07:01;11.50;99.90
66088;DHT22;52872;52.994;6.940;2022-12-29T11:09:30;11.50;99.90
66088;DHT22;52872;52.994;6.940;2022-12-29T11:12:29;11.50;99.90
66088;DHT22;52872;52.994;6.940;2022-12-29T11:15:13;11.60;99.90
66088;DHT22;52872;52.994;6.940;2022-12-29T11:17:57;11.50;99.90
66088;DHT22;52872;52.994;6.940;2022-12-29T11:20:37;11.50;99.90
66088;DHT22;52872;52.994;6.940;2022-12-29T11:23:42;11.50;99.90
66088;DHT22;52872;52.994;6.940;2022-12-29T11:26:20;11.50;99.90
66088;DHT22;52872;52.994;6.940;2022-12-29T11:31:44;11.50;99.90
66088;DHT22;52872;52.994;6.940;2022-12-29T11:34:20;11.40;99.90
66088;DHT22;52872;52.994;6.940;2022-12-29T11:36:49;11.50;99.90
66088;DHT22;52872;52.994;6.940;2022-12-29T11:39:46;11.50;99.90
66088;DHT22;52872;52.994;6.940;2022-12-29T11:42:20;11.50;99.90
66088;DHT22;52872;52.994;6.940;2022-12-29T11:44:50;11.50;99.90
66088;DHT22;52872;52.994;6.940;2022-12-29T11:47:31;11.40;99.90
66088;DHT22;52872;52.994;6.940;2022-12-29T11:50:02;11.50;99.90
66088;DHT22;52872;52.994;6.940;2022-12-29T11:52:33;11.40;99.90
66088;DHT22;52872;52.994;6.940;2022-12-29T11:55:04;11.50;99.90
66088;DHT22;52872;52.994;6.940;2022-12-29T11:57:33;11.50;99.90
66088;DHT22;52872;52.994;6.940;2022-12-29T12:00:24;11.60;99.90
66088;DHT22;52872;52.994;6.940;2022-12-29T12:02:58;11.70;99.90
66088;DHT22;52872;52.994;6.940;2022-12-29T12:05:45;11.80;99.90
66088;DHT22;52872;52.994;6.940;2022-12-29T12:11:32;11.90;99.90
66088;DHT22;52872;52.994;6.940;2022-12-29T12:14:21;11.90;99.90
66088;DHT22;52872;52.994;6.940;2022-12-29T12:17:31;11.80;99.90
66088;DHT22;52872;52.994;6.940;2022-12-29T12:22:41;11.50;99.90
66088;DHT22;52872;52.994;6.940;2022-12-29T12:25:24;11.60;99.90
66088;DHT22;52872;52.994;6.940;2022-12-29T12:28:04;11.60;99.90
66088;DHT22;52872;52.994;6.940;2022-12-29T12:30:46;11.60;99.90
66088;DHT22;52872;52.994;6.940;2022-12-29T12:33:26;11.70;99.90
66088;DHT22;52872;52.994;6.940;2022-12-29T12:44:36;12.30;99.90
66088;DHT22;52872;52.994;6.940;2022-12-29T12:50:12;12.40;99.90
66088;DHT22;52872;52.994;6.940;2022-12-29T12:56:08;12.30;99.90
66088;DHT22;52872;52.994;6.940;2022-12-29T12:58:52;12.30;99.90
66088;DHT22;52872;52.994;6.940;2022-12-29T13:01:42;12.10;99.90
66088;DHT22;52872;52.994;6.940;2022-12-29T13:07:11;12.00;99.90
66088;DHT22;52872;52.994;6.940;2022-12-29T13:12:40;12.00;99.90
66088;DHT22;52872;52.994;6.940;2022-12-29T13:15:35;12.00;99.90
66088;DHT22;52872;52.994;6.940;2022-12-29T13:20:50;11.70;99.90
66088;DHT22;52872;52.994;6.940;2022-12-29T13:26:32;11.70;99.90
66088;DHT22;52872;52.994;6.940;2022-12-29T13:29:21;11.60;99.90
66088;DHT22;52872;52.994;6.940;2022-12-29T13:34:51;11.50;99.90
66088;DHT22;52872;52.994;6.940;2022-12-29T13:37:24;11.50;99.90
66088;DHT22;52872;52.994;6.940;2022-12-29T13:39:59;11.50;99.90
66088;DHT22;52872;52.994;6.940;2022-12-29T13:42:28;11.50;99.90
66088;DHT22;52872;52.994;6.940;2022-12-29T13:50:13;11.40;99.90
66088;DHT22;52872;52.994;6.940;2022-12-29T13:56:14;11.30;99.90
66088;DHT22;52872;52.994;6.940;2022-12-29T13:58:57;11.30;99.90
66088;DHT22;52872;52.994;6.940;2022-12-29T14:01:50;11.20;99.90
66088;DHT22;52872;52.994;6.940;2022-12-29T14:04:26;11.20;99.90
66088;DHT22;52872;52.994;6.940;2022-12-29T14:07:13;11.10;99.90
66088;DHT22;52872;52.994;6.940;2022-12-29T14:09:50;11.20;99.90
66088;DHT22;52872;52.994;6.940;2022-12-29T14:12:38;11.20;99.90
66088;DHT22;52872;52.994;6.940;2022-12-29T14:17:43;11.10;99.90
66088;DHT22;52872;52.994;6.940;2022-12-29T14:20:21;11.10;99.90
66088;DHT22;52872;52.994;6.940;2022-12-29T14:28:27;11.00;99.90
66088;DHT22;52872;52.994;6.940;2022-12-29T14:31:02;10.90;99.90
66088;DHT22;52872;52.994;6.940;2022-12-29T14:33:32;10.80;99.90
66088;DHT22;52872;52.994;6.940;2022-12-29T14:36:19;10.70;99.90
66088;DHT22;52872;52.994;6.940;2022-12-29T14:38:47;10.70;99.90
66088;DHT22;52872;52.994;6.940;2022-12-29T14:41:30;10.60;99.90
66088;DHT22;52872;52.994;6.940;2022-12-29T14:44:01;10.60;99.90
66088;DHT22;52872;52.994;6.940;2022-12-29T14:49:28;10.60;99.90
66088;DHT22;52872;52.994;6.940;2022-12-29T14:52:22;10.50;99.90
66088;DHT22;52872;52.994;6.940;2022-12-29T14:54:52;10.60;99.90
66088;DHT22;52872;52.994;6.940;2022-12-29T14:57:21;10.50;99.90
66088;DHT22;52872;52.994;6.940;2022-12-29T14:59:53;10.50;99.90
66088;DHT22;52872;52.994;6.940;2022-12-29T15:02:24;10.50;99.90
66088;DHT22;52872;52.994;6.940;2022-12-29T15:04:59;10.40;99.90
66088;DHT22;52872;52.994;6.940;2022-12-29T15:07:27;10.40;99.90
66088;DHT22;52872;52.994;6.940;2022-12-29T15:10:00;10.30;99.90
66088;DHT22;52872;52.994;6.940;2022-12-29T15:15:25;10.30;99.90
66088;DHT22;52872;52.994;6.940;2022-12-29T15:17:53;10.30;99.90
66088;DHT22;52872;52.994;6.940;2022-12-29T15:20:27;10.20;99.90
66088;DHT22;52872;52.994;6.940;2022-12-29T15:23:03;10.10;99.90
66088;DHT22;52872;52.994;6.940;2022-12-29T15:25:31;10.10;99.90
66088;DHT22;52872;52.994;6.940;2022-12-29T15:28:03;10.10;99.90
66088;DHT22;52872;52.994;6.940;2022-12-29T15:30:31;10.10;99.90
66088;DHT22;52872;52.994;6.940;2022-12-29T15:32:58;10.00;99.90
66088;DHT22;52872;52.994;6.940;2022-12-29T15:35:32;9.90;99.90
66088;DHT22;52872;52.994;6.940;2022-12-29T15:38:13;9.90;99.90
66088;DHT22;52872;52.994;6.940;2022-12-29T15:40:43;9.90;99.90
66088;DHT22;52872;52.994;6.940;2022-12-29T15:45:47;9.70;99.90
66088;DHT22;52872;52.994;6.940;2022-12-29T15:48:19;9.70;99.90
66088;DHT22;52872;52.994;6.940;2022-12-29T15:50:48;9.70;99.90
66088;DHT22;52872;52.994;6.940;2022-12-29T15:53:30;9.60;99.90
66088;DHT22;52872;52.994;6.940;2022-12-29T15:56:05;9.70;99.90
66088;DHT22;52872;52.994;6.940;2022-12-29T15:58:41;9.70;99.90
66088;DHT22;52872;52.994;6.940;2022-12-29T16:03:45;9.80;99.90
66088;DHT22;52872;52.994;6.940;2022-12-29T16:09:33;9.80;99.90
66088;DHT22;52872;52.994;6.940;2022-12-29T16:12:06;9.70;99.90
66088;DHT22;52872;52.994;6.940;2022-12-29T16:17:12;9.70;99.90
66088;DHT22;52872;52.994;6.940;2022-12-29T16:19:41;9.70;99.90
66088;DHT22;52872;52.994;6.940;2022-12-29T16:22:22;9.60;99.90
66088;DHT22;52872;52.994;6.940;2022-12-29T16:24:55;9.70;99.90
66088;DHT22;52872;52.994;6.940;2022-12-29T16:27:40;9.70;99.90
66088;DHT22;52872;52.994;6.940;2022-12-29T16:32:49;9.80;99.90
66088;DHT22;52872;52.994;6.940;2022-12-29T16:35:23;9.80;99.90
66088;DHT22;52872;52.994;6.940;2022-12-29T16:38:13;9.80;99.90
66088;DHT22;52872;52.994;6.940;2022-12-29T16:40:57;9.90;99.90
66088;DHT22;52872;52.994;6.940;2022-12-29T16:43:34;9.90;99.90
66088;DHT22;52872;52.994;6.940;2022-12-29T16:48:31;9.80;99.90
66088;DHT22;52872;52.994;6.940;2022-12-29T16:53:34;9.80;99.90
66088;DHT22;52872;52.994;6.940;2022-12-29T16:56:09;9.80;99.90
66088;DHT22;52872;52.994;6.940;2022-12-29T16:58:40;9.90;99.90
66088;DHT22;52872;52.994;6.940;2022-12-29T17:01:11;9.80;99.90
66088;DHT22;52872;52.994;6.940;2022-12-29T17:03:51;9.90;99.90
66088;DHT22;52872;52.994;6.940;2022-12-29T17:06:21;9.80;99.90
66088;DHT22;52872;52.994;6.940;2022-12-29T17:08:49;9.80;99.90
66088;DHT22;52872;52.994;6.940;2022-12-29T17:14:51;9.70;99.90
66088;DHT22;52872;52.994;6.940;2022-12-29T17:17:18;9.60;99.90
66088;DHT22;52872;52.994;6.940;2022-12-29T17:19:48;9.60;99.90
66088;DHT22;52872;52.994;6.940;2022-12-29T17:22:20;9.50;99.90
66088;DHT22;52872;52.994;6.940;2022-12-29T17:24:47;9.50;99.90
66088;DHT22;52872;52.994;6.940;2022-12-29T17:27:33;9.50;99.90
66088;DHT22;52872;52.994;6.940;2022-12-29T17:30:17;9.50;99.90
66088;DHT22;52872;52.994;6.940;2022-12-29T17:33:03;9.40;99.90
66088;DHT22;52872;52.994;6.940;2022-12-29T17:35:30;9.40;99.90
66088;DHT22;52872;52.994;6.940;2022-12-29T17:37:57;9.30;99.90
66088;DHT22;52872;52.994;6.940;2022-12-29T17:40:27;9.20;99.90
66088;DHT22;52872;52.994;6.940;2022-12-29T17:42:57;9.20;99.90
66088;DHT22;52872;52.994;6.940;2022-12-29T17:45:28;9.10;99.90
66088;DHT22;52872;52.994;6.940;2022-12-29T17:47:55;9.00;99.90
66088;DHT22;52872;52.994;6.940;2022-12-29T17:50:27;8.90;99.90
66088;DHT22;52872;52.994;6.940;2022-12-29T17:53:03;8.90;99.90
66088;DHT22;52872;52.994;6.940;2022-12-29T17:55:34;8.90;99.90
66088;DHT22;52872;52.994;6.940;2022-12-29T17:58:16;8.80;99.90
66088;DHT22;52872;52.994;6.940;2022-12-29T18:00:45;8.70;99.90
66088;DHT22;52872;52.994;6.940;2022-12-29T18:03:17;8.60;99.90
66088;DHT22;52872;52.994;6.940;2022-12-29T18:05:44;8.60;99.90
66088;DHT22;52872;52.994;6.940;2022-12-29T18:08:11;8.50;99.90
66088;DHT22;52872;52.994;6.940;2022-12-29T18:10:41;8.50;99.90
66088;DHT22;52872;52.994;6.940;2022-12-29T18:13:21;8.50;99.90
66088;DHT22;52872;52.994;6.940;2022-12-29T18:15:51;8.50;99.90
66088;DHT22;52872;52.994;6.940;2022-12-29T18:18:20;8.50;99.90
66088;DHT22;52872;52.994;6.940;2022-12-29T18:20:49;8.50;99.90
66088;DHT22;52872;52.994;6.940;2022-12-29T18:23:23;8.50;99.90
66088;DHT22;52872;52.994;6.940;2022-12-29T18:26:02;8.50;99.90
66088;DHT22;52872;52.994;6.940;2022-12-29T18:28:30;8.60;99.90
66088;DHT22;52872;52.994;6.940;2022-12-29T18:30:58;8.60;99.90
66088;DHT22;52872;52.994;6.940;2022-12-29T18:33:27;8.70;99.90
66088;DHT22;52872;52.994;6.940;2022-12-29T18:36:04;8.90;99.90
66088;DHT22;52872;52.994;6.940;2022-12-29T18:38:31;8.90;99.90
66088;DHT22;52872;52.994;6.940;2022-12-29T18:40:59;8.90;99.90
66088;DHT22;52872;52.994;6.940;2022-12-29T18:43:26;9.00;99.90
66088;DHT22;52872;52.994;6.940;2022-12-29T18:45:53;9.00;99.90
66088;DHT22;52872;52.994;6.940;2022-12-29T18:48:21;9.10;99.90
66088;DHT22;52872;52.994;6.940;2022-12-29T18:50:49;9.10;99.90